createdAt,value
2023-04-16T00:02:06.529Z,2.17
2023-04-16T00:05:09.091Z,2.17
2023-04-16T00:08:11.236Z,2.14
2023-04-16T00:11:13.242Z,1.98
2023-04-16T00:14:15.328Z,2.06
2023-04-16T00:17:17.413Z,1.86
2023-04-16T00:20:20.680Z,1.99
2023-04-16T00:23:22.731Z,1.96
2023-04-16T00:26:24.703Z,1.93
2023-04-16T00:29:28.971Z,1.86
2023-04-16T00:32:31.085Z,1.61
2023-04-16T00:35:33.167Z,1.74
2023-04-16T00:38:35.671Z,1.72
2023-04-16T00:41:38.646Z,1.58
2023-04-16T00:44:40.772Z,1.61
2023-04-16T00:47:43.018Z,1.55
2023-04-16T00:50:45.180Z,1.32
2023-04-16T00:53:48.090Z,1.34
2023-04-16T00:56:51.337Z,1.20
2023-04-16T00:59:54.639Z,1.15
2023-04-16T01:02:57.403Z,1.11
2023-04-16T01:05:59.570Z,1.10
2023-04-16T01:09:01.989Z,1.09
2023-04-16T01:12:04.052Z,1.11
2023-04-16T01:15:06.602Z,0.98
2023-04-16T01:18:19.100Z,1.01
2023-04-16T01:21:21.168Z,0.93
2023-04-16T01:24:23.222Z,0.72
2023-04-16T01:27:25.296Z,0.77
2023-04-16T01:30:27.341Z,0.50
2023-04-16T01:33:39.944Z,0.69
2023-04-16T01:36:42.469Z,0.68
2023-04-16T01:39:44.511Z,0.66
2023-04-16T01:42:46.557Z,0.61
2023-04-16T01:45:48.621Z,0.58
2023-04-16T01:48:50.801Z,0.54
2023-04-16T01:51:54.427Z,0.49
2023-04-16T01:54:56.621Z,0.39
2023-04-16T01:57:58.648Z,0.31
2023-04-16T02:01:06.001Z,0.38
2023-04-16T02:04:08.750Z,0.32
2023-04-16T02:07:11.677Z,0.28
2023-04-16T02:10:13.771Z,0.27
2023-04-16T02:13:16.915Z,0.31
2023-04-16T02:16:21.297Z,0.31
2023-04-16T02:19:30.200Z,0.39
2023-04-16T02:22:32.227Z,0.33
2023-04-16T02:25:39.237Z,0.18
2023-04-16T02:28:41.575Z,0.45
2023-04-16T02:31:47.030Z,0.36
2023-04-16T02:34:49.604Z,0.48
2023-04-16T02:37:51.723Z,0.52
2023-04-16T02:40:53.750Z,0.47
2023-04-16T02:43:56.548Z,0.50
2023-04-16T02:46:58.539Z,0.55
2023-04-16T02:50:00.517Z,0.61
2023-04-16T02:53:02.550Z,0.69
2023-04-16T02:56:04.786Z,0.76
2023-04-16T02:59:06.950Z,0.85
2023-04-16T03:02:09.266Z,0.91
2023-04-16T03:05:12.533Z,0.98
2023-04-16T03:08:14.754Z,1.00
2023-04-16T03:11:17.017Z,1.06
2023-04-16T03:14:19.291Z,1.07
2023-04-16T03:17:21.284Z,1.17
2023-04-16T03:20:23.547Z,1.24
2023-04-16T03:23:28.642Z,1.19
2023-04-16T03:26:30.812Z,1.34
2023-04-16T03:29:33.105Z,1.34
2023-04-16T03:32:35.188Z,1.20
2023-04-16T03:35:39.039Z,1.46
2023-04-16T03:38:41.172Z,1.49
2023-04-16T03:41:43.294Z,1.56
2023-04-16T03:44:45.516Z,1.48
2023-04-16T03:47:52.761Z,1.60
2023-04-16T03:50:58.376Z,1.75
2023-04-16T03:54:00.936Z,1.78
2023-04-16T03:57:04.143Z,1.71
2023-04-16T04:00:06.900Z,1.84
2023-04-16T04:03:31.177Z,1.83
2023-04-16T04:06:33.621Z,1.92
2023-04-16T04:09:35.689Z,1.85
2023-04-16T04:12:38.752Z,1.96
2023-04-16T04:15:40.823Z,1.99
2023-04-16T04:18:44.474Z,1.99
2023-04-16T04:21:46.882Z,2.03
2023-04-16T04:24:48.964Z,2.05
2023-04-16T04:27:51.117Z,2.04
2023-04-16T04:30:53.047Z,2.07
2023-04-16T04:33:55.096Z,2.06
2023-04-16T04:36:57.096Z,2.11
2023-04-16T04:40:00.264Z,2.09
2023-04-16T04:43:02.708Z,1.92
2023-04-16T04:46:04.803Z,2.21
2023-04-16T04:49:07.595Z,2.24
2023-04-16T04:52:09.941Z,2.30
2023-04-16T04:55:12.729Z,2.38
2023-04-16T04:58:16.034Z,2.14
2023-04-16T05:01:18.752Z,2.55
2023-04-16T05:04:20.952Z,2.61
2023-04-16T05:07:23.017Z,2.70
2023-04-16T05:10:25.059Z,2.79
2023-04-16T05:13:27.314Z,2.88
2023-04-16T05:16:29.336Z,2.96
2023-04-16T05:19:31.694Z,3.02
2023-04-16T05:22:35.017Z,3.04
2023-04-16T05:25:37.215Z,3.18
2023-04-16T05:28:39.275Z,3.24
2023-04-16T05:31:41.361Z,3.33
2023-04-16T05:34:43.406Z,3.23
2023-04-16T05:37:45.455Z,3.48
2023-04-16T05:40:47.635Z,3.58
2023-04-16T05:43:49.678Z,3.66
2023-04-16T05:46:51.960Z,3.61
2023-04-16T05:49:53.974Z,3.84
2023-04-16T05:52:55.959Z,3.93
2023-04-16T05:55:58.017Z,4.00
2023-04-16T05:59:00.082Z,4.13
2023-04-16T06:02:02.351Z,4.25
2023-04-16T06:05:04.792Z,4.36
2023-04-16T06:08:06.951Z,4.48
2023-04-16T06:11:09.803Z,4.58
2023-04-16T06:14:12.097Z,4.68
2023-04-16T06:17:14.119Z,4.55
2023-04-16T06:20:16.141Z,4.91
2023-04-16T06:23:18.153Z,4.95
2023-04-16T06:26:20.277Z,5.41
2023-04-16T06:29:27.894Z,5.49
2023-04-16T06:32:35.597Z,5.80
2023-04-16T06:35:37.582Z,5.53
2023-04-16T06:38:39.651Z,5.83
2023-04-16T06:41:41.681Z,5.82
2023-04-16T06:44:43.666Z,5.84
2023-04-16T06:47:45.758Z,5.90
2023-04-16T06:50:47.847Z,5.82
2023-04-16T06:53:49.915Z,6.12
2023-04-16T06:56:52.001Z,6.19
2023-04-16T06:59:54.098Z,6.47
2023-04-16T07:02:58.256Z,6.45
2023-04-16T07:06:00.624Z,6.43
2023-04-16T07:09:02.704Z,6.41
2023-04-16T07:12:05.071Z,6.35
2023-04-16T07:15:07.861Z,6.36
2023-04-16T07:18:10.058Z,6.28
2023-04-16T07:21:12.260Z,6.29
2023-04-16T07:24:14.298Z,6.47
2023-04-16T07:27:17.122Z,6.50
2023-04-16T07:30:19.130Z,6.52
2023-04-16T07:33:21.276Z,6.37
2023-04-16T07:36:23.329Z,6.64
2023-04-16T07:39:25.486Z,6.79
2023-04-16T07:42:28.364Z,6.79
2023-04-16T07:45:30.406Z,6.79
2023-04-16T07:48:32.372Z,6.76
2023-04-16T07:51:34.437Z,6.73
2023-04-16T07:54:36.488Z,6.82
2023-04-16T07:57:38.555Z,6.86
2023-04-16T08:00:40.761Z,6.84
2023-04-16T08:03:43.239Z,6.65
2023-04-16T08:06:45.676Z,7.01
2023-04-16T08:09:49.735Z,7.19
2023-04-16T08:12:57.553Z,7.38
2023-04-16T08:15:59.611Z,7.52
2023-04-16T08:19:01.910Z,7.54
2023-04-16T08:22:04.261Z,7.36
2023-04-16T08:25:06.766Z,7.52
2023-04-16T08:28:08.786Z,7.40
2023-04-16T08:31:11.035Z,7.39
2023-04-16T08:34:13.982Z,7.38
2023-04-16T08:37:16.041Z,7.45
2023-04-16T08:40:18.138Z,7.47
2023-04-16T08:43:24.386Z,7.65
2023-04-16T08:46:27.100Z,7.59
2023-04-16T08:49:29.875Z,7.61
2023-04-16T08:52:32.529Z,8.14
2023-04-16T08:55:39.964Z,8.25
2023-04-16T08:58:42.479Z,8.23
2023-04-16T09:01:46.703Z,8.25
2023-04-16T09:04:50.800Z,8.10
2023-04-16T09:07:54.698Z,8.34
2023-04-16T09:10:57.520Z,8.25
2023-04-16T09:14:01.007Z,8.25
2023-04-16T09:17:04.398Z,8.14
2023-04-16T09:20:11.492Z,8.21
2023-04-16T09:23:13.557Z,8.27
2023-04-16T09:26:16.370Z,8.19
2023-04-16T09:29:37.480Z,8.26
2023-04-16T09:32:39.598Z,8.17
2023-04-16T09:35:54.073Z,8.30
2023-04-16T09:38:57.772Z,8.39
2023-04-16T09:41:59.944Z,8.44
2023-04-16T09:45:04.916Z,8.72
2023-04-16T09:48:07.904Z,8.74
2023-04-16T09:51:09.945Z,8.67
2023-04-16T09:54:12.056Z,8.94
2023-04-16T09:57:14.537Z,9.19
2023-04-16T10:00:19.093Z,9.18
2023-04-16T10:03:33.185Z,9.12
2023-04-16T10:06:35.445Z,9.04
2023-04-16T10:09:46.109Z,9.02
2023-04-16T10:12:52.665Z,9.07
2023-04-16T10:15:58.126Z,9.23
2023-04-16T10:19:00.392Z,9.33
2023-04-16T10:22:03.214Z,9.11
2023-04-16T10:25:08.512Z,9.00
2023-04-16T10:28:14.437Z,9.09
2023-04-16T10:31:17.967Z,9.25
2023-04-16T10:34:21.541Z,9.07
2023-04-16T10:37:34.875Z,8.74
2023-04-16T10:40:37.508Z,8.66
2023-04-16T10:43:50.488Z,8.56
2023-04-16T10:46:55.140Z,8.41
2023-04-16T10:49:58.428Z,8.49
2023-04-16T10:53:20.099Z,8.46
2023-04-16T10:56:27.489Z,8.55
2023-04-16T10:59:35.140Z,8.55
2023-04-16T11:02:41.399Z,8.52
2023-04-16T11:05:47.426Z,8.70
2023-04-16T11:08:54.955Z,8.80
2023-04-16T11:11:57.900Z,9.05
2023-04-16T11:15:09.792Z,9.21
2023-04-16T11:18:11.926Z,9.14
2023-04-16T11:21:14.085Z,9.14
2023-04-16T11:24:16.383Z,9.14
2023-04-16T11:27:18.536Z,9.12
2023-04-16T11:30:36.697Z,9.27
2023-04-16T11:33:39.387Z,9.54
2023-04-16T11:36:48.525Z,9.72
2023-04-16T11:39:53.796Z,9.79
2023-04-16T11:42:56.205Z,9.70
2023-04-16T11:46:05.449Z,9.76
2023-04-16T11:49:17.499Z,9.73
2023-04-16T11:52:32.259Z,10.20
2023-04-16T11:55:44.436Z,10.40
2023-04-16T11:59:12.151Z,10.88
2023-04-16T12:02:14.588Z,10.62
2023-04-16T12:05:31.479Z,10.53
2023-04-16T12:08:33.581Z,10.66
2023-04-16T12:11:40.518Z,10.53
2023-04-16T12:14:50.819Z,10.32
2023-04-16T12:18:07.505Z,10.88
2023-04-16T12:21:09.655Z,10.71
2023-04-16T12:24:14.160Z,10.48
2023-04-16T12:27:16.512Z,10.13
2023-04-16T12:30:20.976Z,9.98
2023-04-16T12:33:23.354Z,9.49
2023-04-16T12:36:25.469Z,9.48
2023-04-16T12:39:27.742Z,9.55
2023-04-16T12:42:35.783Z,9.49
2023-04-16T12:45:39.022Z,9.26
2023-04-16T12:48:41.809Z,9.35
2023-04-16T12:51:43.890Z,9.09
2023-04-16T12:54:46.029Z,9.19
2023-04-16T12:57:53.281Z,9.24
2023-04-16T13:00:55.380Z,9.17
2023-04-16T13:03:57.884Z,9.14
2023-04-16T13:07:00.773Z,9.14
2023-04-16T13:10:02.847Z,9.16
2023-04-16T13:13:05.445Z,9.17
2023-04-16T13:16:08.955Z,9.16
2023-04-16T13:19:11.356Z,9.16
2023-04-16T13:22:13.781Z,9.21
2023-04-16T13:25:16.028Z,9.20
2023-04-16T13:28:18.505Z,9.19
2023-04-16T13:31:22.368Z,9.43
2023-04-16T13:34:24.625Z,9.39
2023-04-16T13:37:26.863Z,9.47
2023-04-16T13:40:29.714Z,9.55
2023-04-16T13:43:32.993Z,9.61
2023-04-16T13:46:35.046Z,9.69
2023-04-16T13:49:37.392Z,9.75
2023-04-16T13:52:39.659Z,9.91
2023-04-16T13:55:42.963Z,9.79
2023-04-16T13:58:45.592Z,10.05
2023-04-16T14:01:47.880Z,10.19
2023-04-16T14:04:49.875Z,10.27
2023-04-16T14:07:52.095Z,10.33
2023-04-16T14:10:55.733Z,10.28
2023-04-16T14:13:58.852Z,10.35
2023-04-16T14:17:03.482Z,10.38
2023-04-16T14:20:07.322Z,10.46
2023-04-16T14:23:09.750Z,10.40
2023-04-16T14:26:12.282Z,10.21
2023-04-16T14:29:14.381Z,10.07
2023-04-16T14:32:16.785Z,9.96
2023-04-16T14:35:19.198Z,9.94
2023-04-16T14:38:21.506Z,9.98
2023-04-16T14:41:23.507Z,9.93
2023-04-16T14:44:25.731Z,9.89
2023-04-16T14:47:28.949Z,10.04
2023-04-16T14:50:31.549Z,10.01
2023-04-16T14:53:34.689Z,10.13
2023-04-16T14:56:36.742Z,10.10
2023-04-16T14:59:39.186Z,9.95
2023-04-16T15:02:42.638Z,10.07
2023-04-16T15:05:45.255Z,10.03
2023-04-16T15:08:47.318Z,9.93
2023-04-16T15:11:49.528Z,9.92
2023-04-16T15:14:51.475Z,9.85
2023-04-16T15:17:54.108Z,9.71
2023-04-16T15:20:56.643Z,9.64
2023-04-16T15:23:59.465Z,9.61
2023-04-16T15:27:03.054Z,9.63
2023-04-16T15:30:05.524Z,9.63
2023-04-16T15:33:08.584Z,9.41
2023-04-16T15:36:12.198Z,9.63
2023-04-16T15:39:14.859Z,9.59
2023-04-16T15:42:17.361Z,9.44
2023-04-16T15:45:19.692Z,9.41
2023-04-16T15:48:22.339Z,9.41
2023-04-16T15:51:25.020Z,9.39
2023-04-16T15:54:27.371Z,9.41
2023-04-16T15:57:30.109Z,9.51
2023-04-16T16:00:32.602Z,9.39
2023-04-16T16:03:36.708Z,9.31
2023-04-16T16:06:39.546Z,9.05
2023-04-16T16:09:42.329Z,9.24
2023-04-16T16:12:44.797Z,9.15
2023-04-16T16:15:47.392Z,9.10
2023-04-16T16:18:58.828Z,9.15
2023-04-16T16:22:01.652Z,9.10
2023-04-16T16:25:04.761Z,9.14
2023-04-16T16:28:07.345Z,9.12
2023-04-16T16:31:10.087Z,9.12
2023-04-16T16:34:19.959Z,9.08
2023-04-16T16:37:26.914Z,9.07
2023-04-16T16:40:31.461Z,9.06
2023-04-16T16:43:37.760Z,8.88
2023-04-16T16:46:40.717Z,9.02
2023-04-16T16:49:43.399Z,8.98
2023-04-16T16:52:46.311Z,8.92
2023-04-16T16:55:48.877Z,8.82
2023-04-16T16:58:51.788Z,8.76
2023-04-16T17:01:54.449Z,8.67
2023-04-16T17:04:59.611Z,8.56
2023-04-16T17:08:02.489Z,8.41
2023-04-16T17:11:06.000Z,8.54
2023-04-16T17:14:08.804Z,8.50
2023-04-16T17:17:11.530Z,8.48
2023-04-16T17:20:17.676Z,8.37
2023-04-16T17:23:28.156Z,8.42
2023-04-16T17:26:32.547Z,8.19
2023-04-16T17:29:35.520Z,8.12
2023-04-16T17:32:38.684Z,8.16
2023-04-16T17:35:41.597Z,8.01
2023-04-16T17:38:45.076Z,8.03
2023-04-16T17:41:47.624Z,7.98
2023-04-16T17:44:51.491Z,7.89
2023-04-16T17:47:54.795Z,7.83
2023-04-16T17:50:57.564Z,7.83
2023-04-16T17:54:00.022Z,7.78
2023-04-16T17:57:02.763Z,7.63
2023-04-16T18:00:12.599Z,7.73
2023-04-16T18:03:16.253Z,7.71
2023-04-16T18:06:20.860Z,7.66
2023-04-16T18:09:24.211Z,7.57
2023-04-16T18:12:27.117Z,7.55
2023-04-16T18:15:29.887Z,7.49
2023-04-16T18:18:32.675Z,7.49
2023-04-16T18:21:36.395Z,7.46
2023-04-16T18:24:39.284Z,7.46
2023-04-16T18:27:42.362Z,7.26
2023-04-16T18:30:45.997Z,7.40
2023-04-16T18:33:57.602Z,7.37
2023-04-16T18:37:04.427Z,7.04
2023-04-16T18:40:07.609Z,7.31
2023-04-16T18:43:10.030Z,7.25
2023-04-16T18:46:13.620Z,7.20
2023-04-16T18:49:16.908Z,7.10
2023-04-16T18:52:19.473Z,7.14
2023-04-16T18:55:22.652Z,6.87
2023-04-16T18:58:26.247Z,7.12
2023-04-16T19:01:30.053Z,7.09
2023-04-16T19:04:32.704Z,6.90
2023-04-16T19:07:36.075Z,7.05
2023-04-16T19:10:39.295Z,7.01
2023-04-16T19:13:42.309Z,7.01
2023-04-16T19:16:45.417Z,6.95
2023-04-16T19:19:48.384Z,6.93
2023-04-16T19:22:51.241Z,6.92
2023-04-16T19:25:54.453Z,6.88
2023-04-16T19:28:57.991Z,6.88
2023-04-16T19:32:02.875Z,6.86
2023-04-16T19:35:06.215Z,6.84
2023-04-16T19:38:10.293Z,6.70
2023-04-16T19:41:13.403Z,6.68
2023-04-16T19:44:15.867Z,6.79
2023-04-16T19:47:18.649Z,6.64
2023-04-16T19:50:22.364Z,6.77
2023-04-16T19:53:25.289Z,6.75
2023-04-16T19:56:27.920Z,6.73
2023-04-16T19:59:32.869Z,6.58
2023-04-16T20:02:35.273Z,6.71
2023-04-16T20:05:37.752Z,6.67
2023-04-16T20:08:40.225Z,6.64
2023-04-16T20:11:43.840Z,6.64
2023-04-16T20:14:46.402Z,6.60
2023-04-16T20:17:49.066Z,6.64
2023-04-16T20:20:51.468Z,6.58
2023-04-16T20:23:53.885Z,6.62
2023-04-16T20:26:57.203Z,6.62
2023-04-16T20:30:03.703Z,6.62
2023-04-16T20:33:07.159Z,6.59
2023-04-16T20:36:09.658Z,6.45
2023-04-16T20:39:12.886Z,6.55
2023-04-16T20:42:15.276Z,6.57
2023-04-16T20:45:18.750Z,6.56
2023-04-16T20:48:21.115Z,6.46
2023-04-16T20:51:23.493Z,6.55
2023-04-16T20:54:25.879Z,6.52
2023-04-16T20:57:29.871Z,6.28
2023-04-16T21:00:32.152Z,6.51
2023-04-16T21:03:34.584Z,6.51
2023-04-16T21:06:38.794Z,6.49
2023-04-16T21:09:41.022Z,6.50
2023-04-16T21:12:43.170Z,6.58
2023-04-16T21:15:45.923Z,6.57
2023-04-16T21:18:48.183Z,6.55
2023-04-16T21:21:50.261Z,6.40
2023-04-16T21:24:52.401Z,6.27
2023-04-16T21:27:54.685Z,6.47
2023-04-16T21:30:56.689Z,6.45
2023-04-16T21:33:58.767Z,6.45
2023-04-16T21:37:00.893Z,6.42
2023-04-16T21:40:05.789Z,6.42
2023-04-16T21:43:07.839Z,6.41
2023-04-16T21:46:09.894Z,6.37
2023-04-16T21:49:12.171Z,6.36
2023-04-16T21:52:14.401Z,6.32
2023-04-16T21:55:16.457Z,6.32
2023-04-16T21:58:18.475Z,6.28
2023-04-16T22:01:20.546Z,6.26
2023-04-16T22:04:26.434Z,6.23
2023-04-16T22:07:29.104Z,6.18
2023-04-16T22:10:31.457Z,6.19
2023-04-16T22:13:33.590Z,6.17
2023-04-16T22:16:36.293Z,6.14
2023-04-16T22:19:39.457Z,6.09
2023-04-16T22:22:42.570Z,6.13
2023-04-16T22:25:44.823Z,6.05
2023-04-16T22:28:46.800Z,6.01
2023-04-16T22:31:48.927Z,5.94
2023-04-16T22:34:52.434Z,5.94
2023-04-16T22:37:54.419Z,5.89
2023-04-16T22:40:56.467Z,5.61
2023-04-16T22:43:58.551Z,5.83
2023-04-16T22:47:00.569Z,5.79
2023-04-16T22:50:03.489Z,5.94
2023-04-16T22:53:05.898Z,5.89
2023-04-16T22:56:08.110Z,5.93
2023-04-16T22:59:10.424Z,5.85
2023-04-16T23:02:12.817Z,5.77
2023-04-16T23:05:15.051Z,5.71
2023-04-16T23:08:17.141Z,5.63
2023-04-16T23:11:19.295Z,5.55
2023-04-16T23:14:21.525Z,5.51
2023-04-16T23:17:23.696Z,5.49
2023-04-16T23:20:26.239Z,5.43
2023-04-16T23:23:28.391Z,5.39
2023-04-16T23:26:30.493Z,5.17
2023-04-16T23:29:32.515Z,5.27
2023-04-16T23:32:34.617Z,5.18
2023-04-16T23:35:36.557Z,5.44
2023-04-16T23:38:38.543Z,5.35
2023-04-16T23:41:40.603Z,5.19
2023-04-16T23:44:42.686Z,5.20
2023-04-16T23:47:44.873Z,5.16
2023-04-16T23:50:46.908Z,5.14
2023-04-16T23:53:49.020Z,5.16
2023-04-16T23:56:51.050Z,5.24
2023-04-16T23:59:53.083Z,5.32
